Time;durP1;ratioP1;P1;durP2;ratioP2;P2;SDS_P1;SDS_P2;PMS_P1;PMS_P2;Temp;Humidity;BMP_temperature;BMP_pressure;BME280_temperature;BME280_humidity;BME280_pressure;Samples;Min_cycle;Max_cycle;Signal;HPM_P1;HPM_P2
2023/07/17 09:05:22;;;;;;;5.70;3.30;;;28.70;65.00;;;;;;5023636;23;20046;-71
2023/07/17 09:07:48;;;;;;;6.68;3.20;;;28.80;64.80;;;;;;4992571;28;20362;-73
2023/07/17 09:10:21;;;;;;;7.10;3.13;;;28.90;64.50;;;;;;4975086;28;20109;-72
2023/07/17 09:12:54;;;;;;;5.93;3.55;;;28.90;63.70;;;;;;4975189;28;20041;-71
2023/07/17 09:15:20;;;;;;;5.00;3.45;;;29.00;63.60;;;;;;4992978;28;20105;-71
2023/07/17 09:17:46;;;;;;;6.22;3.30;;;29.00;63.00;;;;;;4992159;28;20106;-71
2023/07/17 09:20:13;;;;;;;5.53;3.42;;;28.80;63.70;;;;;;4992972;28;20081;-71
2023/07/17 09:22:40;;;;;;;3.95;3.05;;;28.90;64.50;;;;;;4993002;28;20069;-72
2023/07/17 09:25:06;;;;;;;5.13;3.67;;;29.00;64.30;;;;;;4992101;28;20474;-72
2023/07/17 09:27:52;;;;;;;6.22;3.35;;;28.90;65.30;;;;;;4992696;28;20034;-72
2023/07/17 09:30:20;;;;;;;5.07;3.65;;;28.80;65.40;;;;;;4992419;28;20097;-72
2023/07/17 09:32:47;;;;;;;6.35;3.17;;;28.80;66.80;;;;;;4992298;28;20023;-70
2023/07/17 09:35:13;;;;;;;8.15;3.63;;;28.70;66.90;;;;;;4993243;28;20033;-70
2023/07/17 09:37:42;;;;;;;7.38;3.40;;;28.60;67.90;;;;;;4993148;28;20034;-71
2023/07/17 09:40:11;;;;;;;6.70;3.70;;;28.60;67.40;;;;;;4993952;28;20497;-71
2023/07/17 09:42:44;;;;;;;5.72;4.00;;;28.60;67.80;;;;;;4996660;28;20029;-71
2023/07/17 09:45:14;;;;;;;4.10;3.70;;;28.50;68.40;;;;;;4996342;28;20037;-71
2023/07/17 09:47:41;;;;;;;4.25;3.05;;;28.40;68.90;;;;;;4979027;28;20493;-71
2023/07/17 09:50:08;;;;;;;7.75;4.13;;;28.30;69.30;;;;;;4996008;28;20026;-71
2023/07/17 09:52:34;;;;;;;5.85;4.00;;;28.30;69.80;;;;;;4996060;28;20057;-71
2023/07/17 09:55:03;;;;;;;5.25;3.53;;;28.40;70.20;;;;;;4995587;28;20037;-71
2023/07/17 09:57:30;;;;;;;7.18;4.57;;;28.40;69.60;;;;;;4996126;28;20041;-72
2023/07/17 10:00:14;;;;;;;8.63;3.60;;;28.40;70.20;;;;;;4995739;28;20038;-73
2023/07/17 10:02:46;;;;;;;6.30;3.50;;;28.40;69.80;;;;;;4996104;28;20369;-71
2023/07/17 10:05:12;;;;;;;7.30;3.30;;;28.30;69.80;;;;;;4996029;28;20121;-71
2023/07/17 10:07:42;;;;;;;11.02;3.92;;;28.30;70.10;;;;;;4995543;28;20109;-71
2023/07/17 10:10:10;;;;;;;7.38;3.67;;;28.40;69.30;;;;;;4995347;28;20030;-72
2023/07/17 10:12:37;;;;;;;6.18;3.70;;;28.40;69.00;;;;;;4995936;28;20042;-71
2023/07/17 10:15:04;;;;;;;7.50;4.25;;;28.50;68.40;;;;;;4995450;28;20030;-72
2023/07/17 10:17:34;;;;;;;7.45;3.35;;;28.50;67.90;;;;;;4995764;28;20034;-71
2023/07/17 10:20:07;;;;;;;6.57;3.58;;;28.50;67.60;;;;;;4995261;28;20089;-73
2023/07/17 10:22:35;;;;;;;5.05;3.35;;;28.50;68.30;;;;;;4995802;28;20058;-72
2023/07/17 10:25:09;;;;;;;5.13;3.90;;;28.40;67.60;;;;;;4998460;28;20030;-72
2023/07/17 10:27:40;;;;;;;5.32;3.85;;;28.50;67.40;;;;;;4995674;28;20069;-71
2023/07/17 10:30:28;;;;;;;7.18;3.90;;;28.50;67.20;;;;;;4995003;28;20478;-72
2023/07/17 10:33:10;;;;;;;5.53;3.40;;;28.60;67.40;;;;;;4995142;28;20031;-71
2023/07/17 10:35:44;;;;;;;7.63;3.67;;;28.80;67.40;;;;;;4995542;28;20041;-71
2023/07/17 10:38:11;;;;;;;3.97;3.17;;;28.90;67.30;;;;;;4995030;28;20026;-71
2023/07/17 10:40:37;;;;;;;7.70;3.67;;;29.00;66.60;;;;;;4995239;28;20084;-71
2023/07/17 10:43:19;;;;;;;7.90;3.80;;;29.10;66.40;;;;;;4995016;28;20027;-71
2023/07/17 10:45:47;;;;;;;10.63;3.65;;;29.20;66.70;;;;;;4995418;28;20033;-72
2023/07/17 10:48:13;;;;;;;7.70;3.92;;;29.40;65.50;;;;;;4994721;28;20089;-70
2023/07/17 10:50:50;;;;;;;5.00;3.75;;;29.50;65.40;;;;;;4995549;28;20533;-71
2023/07/17 10:53:15;;;;;;;6.32;3.88;;;29.70;65.10;;;;;;4975115;28;20121;-70
2023/07/17 10:55:42;;;;;;;5.60;3.85;;;29.80;64.90;;;;;;4975354;28;20538;-71
2023/07/17 10:58:08;;;;;;;5.95;3.97;;;29.90;64.00;;;;;;4957822;28;20117;-71
2023/07/17 11:00:34;;;;;;;6.15;4.15;;;29.90;64.10;;;;;;4975556;28;20066;-71
2023/07/17 11:02:59;;;;;;;5.88;4.22;;;29.90;64.30;;;;;;4975209;28;20030;-72
2023/07/17 11:05:25;;;;;;;5.80;4.30;;;30.00;65.10;;;;;;4975075;28;20562;-72
2023/07/17 11:07:55;;;;;;;6.95;5.00;;;30.20;64.40;;;;;;4957839;28;20442;-73
2023/07/17 11:10:20;;;;;;;8.65;4.75;;;30.10;64.00;;;;;;4975448;28;20049;-72
2023/07/17 11:12:46;;;;;;;5.18;4.65;;;30.10;64.00;;;;;;4975281;28;20478;-71
2023/07/17 11:15:16;;;;;;;5.57;5.05;;;30.20;64.50;;;;;;4974781;28;20035;-72
2023/07/17 11:17:42;;;;;;;9.70;5.22;;;30.30;63.00;;;;;;4975154;28;20062;-71
2023/07/17 11:20:09;;;;;;;6.68;4.70;;;30.30;63.70;;;;;;4974750;28;20501;-72
2023/07/17 11:22:36;;;;;;;8.30;5.25;;;30.40;63.30;;;;;;4975073;28;20031;-72
2023/07/17 11:25:02;;;;;;;6.05;4.63;;;30.40;63.30;;;;;;4974665;28;20043;-71
2023/07/17 11:27:28;;;;;;;8.02;4.38;;;30.40;63.70;;;;;;4975014;28;20030;-71
2023/07/17 11:29:54;;;;;;;5.50;4.47;;;30.40;64.00;;;;;;4973628;28;20027;-72
2023/07/17 11:32:20;;;;;;;6.07;4.80;;;30.50;62.80;;;;;;4975447;28;20026;-72
2023/07/17 11:35:08;;;;;;;7.30;4.70;;;30.60;62.40;;;;;;4974855;28;20039;-70
2023/07/17 11:37:35;;;;;;;5.47;4.53;;;30.50;62.20;;;;;;4974380;28;20027;-72
2023/07/17 11:40:05;;;;;;;6.72;4.55;;;30.50;62.50;;;;;;4974331;28;20035;-71
2023/07/17 11:42:53;;;;;;;4.88;4.35;;;30.60;61.90;;;;;;4974986;28;20034;-71
2023/07/17 11:45:26;;;;;;;5.75;4.30;;;30.70;61.10;;;;;;4975084;28;20023;-70
2023/07/17 11:47:53;;;;;;;11.65;5.38;;;30.70;60.80;;;;;;4975045;28;20037;-72
2023/07/17 11:50:27;;;;;;;6.65;4.38;;;30.70;61.80;;;;;;4975102;28;20053;-72
2023/07/17 11:53:06;;;;;;;6.55;4.80;;;30.70;61.00;;;;;;4974682;28;20026;-71
2023/07/17 11:55:41;;;;;;;4.40;4.00;;;30.70;62.40;;;;;;4974479;28;20027;-71
2023/07/17 11:58:16;;;;;;;8.48;4.10;;;30.80;61.80;;;;;;4974134;28;20035;-72
2023/07/17 12:00:43;;;;;;;7.70;6.10;;;30.80;61.60;;;;;;4974488;28;20031;-72
2023/07/17 12:03:09;;;;;;;6.00;3.83;;;30.90;60.90;;;;;;4991391;28;20127;-72
2023/07/17 12:05:36;;;;;;;4.60;3.65;;;30.90;60.30;;;;;;4993731;28;20160;-72
2023/07/17 12:08:02;;;;;;;7.00;4.22;;;30.90;60.70;;;;;;4993345;28;20065;-72
2023/07/17 12:10:27;;;;;;;6.45;3.67;;;30.90;60.20;;;;;;4993813;28;20058;-72
2023/07/17 12:12:53;;;;;;;4.90;3.55;;;30.90;60.80;;;;;;4993493;28;20065;-70
2023/07/17 12:15:19;;;;;;;6.93;4.10;;;30.90;59.50;;;;;;4993103;28;20026;-71
2023/07/17 12:17:44;;;;;;;4.47;3.80;;;30.90;60.60;;;;;;4993619;28;20038;-71
2023/07/17 12:20:10;;;;;;;5.15;3.70;;;30.80;61.10;;;;;;4992838;28;20035;-71
2023/07/17 12:22:36;;;;;;;7.57;3.83;;;30.70;60.60;;;;;;4995741;28;20490;-71
2023/07/17 12:25:02;;;;;;;5.85;3.75;;;30.70;60.00;;;;;;4992772;28;20038;-71
2023/07/17 12:27:28;;;;;;;9.70;5.20;;;30.70;60.50;;;;;;4993386;28;20036;-71
2023/07/17 12:29:54;;;;;;;8.15;5.07;;;30.60;63.00;;;;;;4993380;28;20019;-72
2023/07/17 12:32:19;;;;;;;7.53;5.28;;;30.50;64.40;;;;;;4993102;28;20030;-71
2023/07/17 12:34:46;;;;;;;8.85;5.97;;;30.30;65.50;;;;;;4993404;28;20030;-71
2023/07/17 12:37:12;;;;;;;8.48;5.60;;;30.10;66.20;;;;;;4992838;28;20041;-71
2023/07/17 12:39:37;;;;;;;7.32;5.25;;;30.00;66.80;;;;;;4993495;28;20113;-72
2023/07/17 12:42:03;;;;;;;6.72;5.38;;;29.80;67.30;;;;;;4992966;28;20061;-72
2023/07/17 12:44:29;;;;;;;7.72;5.13;;;29.70;68.10;;;;;;4993609;28;20463;-72
2023/07/17 12:46:55;;;;;;;8.38;5.32;;;29.60;68.20;;;;;;4993123;28;20033;-72
2023/07/17 12:49:20;;;;;;;7.65;4.78;;;29.60;68.40;;;;;;4992980;28;20102;-72
2023/07/17 12:51:46;;;;;;;7.70;4.88;;;29.50;68.90;;;;;;4992766;28;20109;-72
2023/07/17 12:54:11;;;;;;;5.55;4.93;;;29.50;69.50;;;;;;4993617;28;20374;-72
2023/07/17 12:56:37;;;;;;;5.43;4.65;;;29.50;68.90;;;;;;4992982;28;20443;-71
2023/07/17 12:59:03;;;;;;;5.90;5.30;;;29.50;69.00;;;;;;4992763;28;20038;-72
2023/07/17 13:01:29;;;;;;;7.20;5.00;;;29.50;69.40;;;;;;4993288;28;20101;-71
2023/07/17 13:03:54;;;;;;;9.40;5.13;;;29.40;69.80;;;;;;4993099;28;20039;-71
2023/07/17 13:06:20;;;;;;;8.52;4.90;;;29.40;70.00;;;;;;4992037;28;20104;-72
2023/07/17 13:08:46;;;;;;;7.72;5.20;;;29.30;70.30;;;;;;4993052;28;20030;-71
2023/07/17 13:11:11;;;;;;;4.95;4.15;;;29.30;69.70;;;;;;4992467;28;20031;-73
2023/07/17 13:13:37;;;;;;;5.20;4.30;;;29.30;69.60;;;;;;4992894;28;20417;-71
2023/07/17 13:16:03;;;;;;;4.30;3.80;;;29.30;69.90;;;;;;4994979;28;20485;-73
2023/07/17 13:18:28;;;;;;;8.63;4.60;;;29.40;69.80;;;;;;4996937;28;20026;-72
2023/07/17 13:20:54;;;;;;;6.40;5.07;;;29.40;69.60;;;;;;4996426;28;20073;-72
2023/07/17 13:23:19;;;;;;;6.13;3.67;;;29.40;70.20;;;;;;4996235;28;20093;-72
2023/07/17 13:25:45;;;;;;;6.40;3.50;;;29.40;69.90;;;;;;4979055;28;20038;-71
2023/07/17 13:28:11;;;;;;;5.80;3.63;;;29.30;70.10;;;;;;4996222;28;20030;-71
2023/07/17 13:30:36;;;;;;;4.65;3.35;;;29.20;70.40;;;;;;4979164;28;20082;-71
2023/07/17 13:33:02;;;;;;;5.05;3.75;;;29.20;70.60;;;;;;4996082;28;20026;-72
2023/07/17 13:35:28;;;;;;;3.97;3.50;;;29.20;70.70;;;;;;4996483;28;20054;-71
2023/07/17 13:37:54;;;;;;;5.60;4.00;;;29.10;70.80;;;;;;4996277;28;20031;-71
2023/07/17 13:40:22;;;;;;;4.47;3.45;;;29.10;71.10;;;;;;4995880;28;20033;-71
2023/07/17 13:42:48;;;;;;;7.40;4.20;;;29.10;70.90;;;;;;4996166;28;20117;-71
2023/07/17 13:45:14;;;;;;;5.95;3.55;;;29.10;70.60;;;;;;4995805;28;20457;-71
2023/07/17 13:47:40;;;;;;;6.65;3.90;;;29.20;71.20;;;;;;4996078;28;20042;-72
2023/07/17 13:50:06;;;;;;;6.32;3.88;;;29.20;70.10;;;;;;4996105;28;20037;-72
2023/07/17 13:52:32;;;;;;;10.18;4.18;;;29.20;69.90;;;;;;4996045;28;20113;-72
2023/07/17 13:54:57;;;;;;;4.32;3.80;;;29.30;70.70;;;;;;4996096;28;20456;-72
2023/07/17 13:57:23;;;;;;;5.32;3.42;;;29.30;70.90;;;;;;4995672;28;20042;-72
2023/07/17 13:59:49;;;;;;;4.00;3.58;;;29.20;69.70;;;;;;4995996;28;20101;-72
2023/07/17 14:02:14;;;;;;;5.20;3.85;;;29.20;69.40;;;;;;4995429;28;20061;-72
2023/07/17 14:04:40;;;;;;;4.60;3.40;;;29.20;68.70;;;;;;4996029;28;20054;-72
2023/07/17 14:07:05;;;;;;;5.65;3.60;;;29.30;68.90;;;;;;4995479;28;20053;-72
2023/07/17 14:09:31;;;;;;;5.30;3.40;;;29.30;69.00;;;;;;4995668;28;20084;-72
2023/07/17 14:11:57;;;;;;;4.43;3.33;;;29.30;68.20;;;;;;4994985;28;20178;-71
2023/07/17 14:14:23;;;;;;;5.07;3.90;;;29.30;68.20;;;;;;4995152;28;20439;-72
2023/07/17 14:16:48;;;;;;;3.72;3.20;;;29.40;68.60;;;;;;4995388;28;20026;-72
2023/07/17 14:19:14;;;;;;;3.90;3.25;;;29.50;67.60;;;;;;4995308;28;20035;-72
2023/07/17 14:21:39;;;;;;;5.03;3.10;;;29.60;67.30;;;;;;4996018;28;20061;-72
2023/07/17 14:24:05;;;;;;;2.85;2.58;;;29.50;66.90;;;;;;5011373;28;20034;-74
2023/07/17 14:26:31;;;;;;;3.60;3.10;;;29.60;65.70;;;;;;5014930;28;20026;-72
2023/07/17 14:28:57;;;;;;;3.28;2.80;;;29.70;65.80;;;;;;5014857;28;20054;-72
2023/07/17 14:31:22;;;;;;;4.15;3.20;;;29.70;65.60;;;;;;5014560;28;20018;-72
2023/07/17 14:33:48;;;;;;;5.07;3.22;;;29.70;65.80;;;;;;5015008;28;20030;-72
2023/07/17 14:36:14;;;;;;;4.18;3.30;;;29.70;65.80;;;;;;5014598;28;20176;-72
2023/07/17 14:38:40;;;;;;;3.47;2.95;;;29.70;65.70;;;;;;5014881;28;20099;-72
2023/07/17 14:41:05;;;;;;;3.58;2.80;;;29.70;66.00;;;;;;5015163;28;20065;-72
2023/07/17 14:43:36;;;;;;;3.45;2.78;;;29.70;64.60;;;;;;5014240;28;20058;-72
2023/07/17 14:46:01;;;;;;;3.33;2.67;;;29.80;63.60;;;;;;5014905;28;20034;-72
2023/07/17 14:48:30;;;;;;;3.33;2.63;;;29.80;63.70;;;;;;5014226;28;20048;-72
2023/07/17 14:50:56;;;;;;;2.75;2.47;;;29.80;62.20;;;;;;5014669;28;20033;-72
2023/07/17 14:53:22;;;;;;;3.70;2.60;;;29.80;62.30;;;;;;4998343;28;20127;-71
2023/07/17 14:55:48;;;;;;;4.32;2.72;;;29.80;61.70;;;;;;4995345;28;20458;-71
2023/07/17 14:58:14;;;;;;;2.90;2.13;;;29.80;61.60;;;;;;4994493;28;20042;-72
2023/07/17 15:00:40;;;;;;;4.07;2.50;;;29.90;61.10;;;;;;4994781;28;20422;-72
2023/07/17 15:03:07;;;;;;;2.33;2.13;;;29.90;62.00;;;;;;4994840;28;20050;-71
2023/07/17 15:05:32;;;;;;;3.45;2.22;;;29.90;61.20;;;;;;4994369;28;20437;-72
2023/07/17 15:07:58;;;;;;;5.47;2.72;;;29.80;60.50;;;;;;4994825;28;20031;-72
2023/07/17 15:10:24;;;;;;;4.25;2.78;;;29.90;61.60;;;;;;4994067;28;20054;-72
2023/07/17 15:12:49;;;;;;;4.50;2.67;;;29.90;62.10;;;;;;4994689;28;20096;-71
2023/07/17 15:15:16;;;;;;;2.78;2.40;;;29.90;62.00;;;;;;4994278;28;20152;-71
2023/07/17 15:17:41;;;;;;;2.65;2.45;;;29.90;61.70;;;;;;4994542;28;20069;-73
2023/07/17 15:20:07;;;;;;;3.40;2.47;;;29.90;61.40;;;;;;4994237;28;20062;-72
2023/07/17 15:22:36;;;;;;;4.95;2.53;;;29.90;61.60;;;;;;4993792;28;20030;-73
2023/07/17 15:25:03;;;;;;;3.67;2.72;;;29.90;61.60;;;;;;4994420;28;20113;-72
2023/07/17 15:27:29;;;;;;;2.85;2.65;;;29.90;61.60;;;;;;4994094;28;20030;-72
2023/07/17 15:29:54;;;;;;;3.92;2.70;;;29.90;61.60;;;;;;4993961;28;20053;-72
2023/07/17 15:32:20;;;;;;;3.70;2.72;;;29.90;61.00;;;;;;4976386;28;20026;-72
2023/07/17 15:34:46;;;;;;;3.80;2.65;;;29.80;60.70;;;;;;4993920;28;20363;-72
2023/07/17 15:37:12;;;;;;;4.65;2.80;;;29.80;60.90;;;;;;4993318;28;20080;-72
2023/07/17 15:39:37;;;;;;;3.75;2.75;;;29.80;61.10;;;;;;4994071;28;20054;-71
2023/07/17 15:42:03;;;;;;;3.55;2.28;;;29.80;61.00;;;;;;4993851;28;20027;-71
2023/07/17 15:44:29;;;;;;;3.08;2.63;;;29.80;60.30;;;;;;4993705;28;20037;-71
2023/07/17 15:46:54;;;;;;;4.05;2.60;;;29.70;60.10;;;;;;4993650;28;20034;-72
2023/07/17 15:49:20;;;;;;;3.28;2.20;;;29.70;60.10;;;;;;4993263;28;20040;-72
2023/07/17 15:51:46;;;;;;;2.85;2.15;;;29.70;59.50;;;;;;4993726;28;20026;-72
2023/07/17 15:54:12;;;;;;;2.28;1.85;;;29.70;59.50;;;;;;4993889;28;20032;-73
2023/07/17 15:56:37;;;;;;;2.28;2.03;;;29.60;58.90;;;;;;4993659;28;20358;-72
2023/07/17 15:59:03;;;;;;;4.00;2.78;;;29.60;59.10;;;;;;4993929;28;20022;-72
2023/07/17 16:01:29;;;;;;;3.90;1.92;;;29.60;58.40;;;;;;4993253;28;20081;-72
2023/07/17 16:03:54;;;;;;;2.08;1.75;;;29.60;58.00;;;;;;4994010;28;20418;-71
2023/07/17 16:06:20;;;;;;;3.50;2.03;;;29.60;57.90;;;;;;4976507;28;20046;-72
2023/07/17 16:08:46;;;;;;;2.20;2.00;;;29.60;58.30;;;;;;4993952;28;20076;-71
2023/07/17 16:11:11;;;;;;;2.70;1.95;;;29.60;58.50;;;;;;4993522;28;20026;-71
2023/07/17 16:13:37;;;;;;;3.38;1.90;;;29.50;58.60;;;;;;4992509;28;20046;-71
2023/07/17 16:16:06;;;;;;;2.88;1.98;;;29.50;58.80;;;;;;4996191;28;20022;-72
2023/07/17 16:18:32;;;;;;;3.97;2.13;;;29.50;59.20;;;;;;4992955;28;20038;-72
2023/07/17 16:20:59;;;;;;;2.67;2.03;;;29.60;59.80;;;;;;4993282;28;20092;-72
2023/07/17 16:23:25;;;;;;;2.40;2.20;;;29.60;59.90;;;;;;4992967;28;20034;-72
2023/07/17 16:25:51;;;;;;;2.00;1.88;;;29.50;59.90;;;;;;4993027;28;20030;-72
2023/07/17 16:28:16;;;;;;;2.10;1.88;;;29.50;59.90;;;;;;4975397;28;20037;-73
2023/07/17 16:30:42;;;;;;;1.98;1.73;;;29.50;60.00;;;;;;5000192;28;20377;-72
2023/07/17 16:33:08;;;;;;;2.58;1.95;;;29.50;59.90;;;;;;4979190;28;20022;-72
2023/07/17 16:35:36;;;;;;;4.15;2.08;;;29.50;59.40;;;;;;5012064;28;20401;-72
2023/07/17 16:38:02;;;;;;;2.70;1.73;;;29.50;59.70;;;;;;5012438;28;20046;-72
2023/07/17 16:40:28;;;;;;;3.25;1.95;;;29.50;59.40;;;;;;4997132;28;20097;-72
2023/07/17 16:42:54;;;;;;;4.13;2.10;;;29.50;59.70;;;;;;4993023;28;20110;-72
2023/07/17 16:45:20;;;;;;;3.55;1.98;;;29.50;59.90;;;;;;4992315;28;20451;-72
2023/07/17 16:47:46;;;;;;;3.08;1.80;;;29.50;59.90;;;;;;4992684;28;20398;-71
2023/07/17 16:50:12;;;;;;;2.58;1.90;;;29.50;59.90;;;;;;4994754;28;20084;-71
2023/07/17 16:52:38;;;;;;;3.95;2.13;;;29.50;60.90;;;;;;4996504;28;20430;-72
2023/07/17 16:55:05;;;;;;;3.05;2.10;;;29.50;61.20;;;;;;4997490;28;20043;-72
2023/07/17 16:57:31;;;;;;;3.05;2.15;;;29.50;61.50;;;;;;4996404;28;20030;-71
2023/07/17 16:59:58;;;;;;;2.63;2.00;;;29.50;61.80;;;;;;5010542;28;20085;-72
2023/07/17 17:02:26;;;;;;;1.92;1.75;;;29.50;61.70;;;;;;4996811;28;20034;-73
2023/07/17 17:04:53;;;;;;;3.58;1.95;;;29.40;61.70;;;;;;4997126;28;20046;-72
2023/07/17 17:07:19;;;;;;;2.30;2.10;;;29.40;61.90;;;;;;4996453;28;20037;-72
2023/07/17 17:09:45;;;;;;;2.10;1.90;;;29.30;62.20;;;;;;4995710;28;20037;-72
2023/07/17 17:12:12;;;;;;;2.40;1.67;;;29.30;62.50;;;;;;4964780;28;20363;-71
2023/07/17 17:14:38;;;;;;;5.13;2.10;;;29.30;62.40;;;;;;4997049;28;20474;-72
2023/07/17 17:17:04;;;;;;;2.67;2.00;;;29.30;62.40;;;;;;4997140;28;20084;-70
2023/07/17 17:19:30;;;;;;;2.75;2.13;;;29.30;62.40;;;;;;4996361;28;20023;-71
2023/07/17 17:21:57;;;;;;;2.83;2.00;;;29.20;62.40;;;;;;4996503;28;20038;-70
2023/07/17 17:24:25;;;;;;;2.60;2.13;;;29.30;62.60;;;;;;4996662;28;20033;-69
2023/07/17 17:26:51;;;;;;;7.13;1.95;;;29.20;62.70;;;;;;4996412;28;20537;-69
2023/07/17 17:29:18;;;;;;;3.28;2.08;;;29.20;62.90;;;;;;4978734;28;20023;-68
2023/07/17 17:31:44;;;;;;;2.60;2.17;;;29.20;63.00;;;;;;4996178;28;20101;-69
2023/07/17 17:34:11;;;;;;;4.43;2.10;;;29.20;63.10;;;;;;4996453;28;20042;-69
2023/07/17 17:36:37;;;;;;;3.47;1.90;;;29.20;63.00;;;;;;4995989;28;20061;-69
2023/07/17 17:39:04;;;;;;;3.90;2.25;;;29.10;63.00;;;;;;4997002;28;20300;-69
2023/07/17 17:41:34;;;;;;;3.78;1.95;;;29.10;63.20;;;;;;4995949;28;20471;-69
2023/07/17 17:44:00;;;;;;;3.35;2.30;;;29.10;63.40;;;;;;4996445;28;20026;-69
2023/07/17 17:46:27;;;;;;;3.83;2.28;;;29.00;63.60;;;;;;4995779;28;20471;-70
2023/07/17 17:48:53;;;;;;;3.83;1.85;;;29.00;63.80;;;;;;4996179;28;20073;-70
2023/07/17 17:51:20;;;;;;;2.47;1.70;;;28.90;63.90;;;;;;4996240;28;20034;-70
2023/07/17 17:53:46;;;;;;;2.30;1.90;;;28.90;63.40;;;;;;4996154;28;20026;-70
2023/07/17 17:56:12;;;;;;;2.20;1.83;;;28.90;63.30;;;;;;4995850;28;20030;-69
2023/07/17 17:58:39;;;;;;;2.75;1.77;;;28.80;63.20;;;;;;4995389;28;20043;-71
2023/07/17 18:01:06;;;;;;;1.83;1.65;;;28.70;63.40;;;;;;4995397;28;20026;-70
2023/07/17 18:03:33;;;;;;;2.20;2.00;;;28.70;63.20;;;;;;4995197;28;20485;-70
2023/07/17 18:05:59;;;;;;;3.78;2.10;;;28.60;63.10;;;;;;4997850;28;20089;-70
2023/07/17 18:08:25;;;;;;;1.88;1.77;;;28.60;63.20;;;;;;4995275;28;20033;-70
2023/07/17 18:10:52;;;;;;;4.68;2.15;;;28.60;63.40;;;;;;4995306;28;20026;-70
2023/07/17 18:13:18;;;;;;;3.90;1.90;;;28.50;63.60;;;;;;4995491;28;20030;-70
2023/07/17 18:15:45;;;;;;;3.78;2.13;;;28.50;64.10;;;;;;4998243;28;20096;-70
2023/07/17 18:18:12;;;;;;;1.95;1.80;;;28.50;63.70;;;;;;4978050;28;20037;-70
2023/07/17 18:20:38;;;;;;;2.88;2.13;;;28.50;63.80;;;;;;4995287;28;20481;-70
2023/07/17 18:23:04;;;;;;;4.10;2.47;;;28.50;63.90;;;;;;4994929;28;20035;-70
2023/07/17 18:25:31;;;;;;;2.63;2.28;;;28.40;64.10;;;;;;4994930;28;20019;-70
2023/07/17 18:27:57;;;;;;;4.50;2.35;;;28.40;64.40;;;;;;4995166;28;20105;-69
2023/07/17 18:30:24;;;;;;;2.83;2.30;;;28.40;64.40;;;;;;4994929;28;20073;-71
2023/07/17 18:32:50;;;;;;;2.85;2.00;;;28.30;64.40;;;;;;4995617;28;20033;-70
2023/07/17 18:35:16;;;;;;;3.00;2.03;;;28.30;64.50;;;;;;4995681;28;20481;-70
2023/07/17 18:37:43;;;;;;;2.05;1.85;;;28.20;64.50;;;;;;4994507;28;20391;-69
2023/07/17 18:40:11;;;;;;;3.03;2.05;;;28.20;64.60;;;;;;4995189;28;20034;-70
2023/07/17 18:42:38;;;;;;;4.85;2.60;;;28.20;64.80;;;;;;4994629;28;20459;-69
2023/07/17 18:45:06;;;;;;;2.25;2.05;;;28.20;64.90;;;;;;4994858;28;20033;-69
2023/07/17 18:47:32;;;;;;;2.47;2.10;;;28.10;65.10;;;;;;4994143;28;20393;-69
2023/07/17 18:49:58;;;;;;;2.22;1.80;;;28.10;65.40;;;;;;4994676;28;20034;-69
2023/07/17 18:52:25;;;;;;;5.32;1.90;;;28.10;65.50;;;;;;4994481;28;20034;-70
2023/07/17 18:54:51;;;;;;;3.53;1.80;;;28.00;65.60;;;;;;4994837;28;20414;-69
2023/07/17 18:57:17;;;;;;;3.35;1.75;;;27.90;66.00;;;;;;4996569;28;20045;-70
2023/07/17 18:59:43;;;;;;;1.95;1.77;;;27.90;65.90;;;;;;5013972;28;20205;-70
2023/07/17 19:02:10;;;;;;;1.73;1.40;;;27.80;65.60;;;;;;5014125;28;20389;-72
2023/07/17 19:04:37;;;;;;;2.08;1.70;;;27.90;65.80;;;;;;5014071;28;20106;-72
2023/07/17 19:07:04;;;;;;;3.25;1.95;;;27.80;65.40;;;;;;5013184;28;20034;-72
2023/07/17 19:09:30;;;;;;;5.15;1.95;;;27.70;65.40;;;;;;5014202;28;20030;-73
2023/07/17 19:11:58;;;;;;;2.97;1.73;;;27.70;65.70;;;;;;5014222;28;20029;-74
2023/07/17 19:14:27;;;;;;;4.00;1.88;;;27.70;65.20;;;;;;5013665;28;20030;-82
2023/07/17 19:16:59;;;;;;;2.38;1.83;;;27.60;65.10;;;;;;5014777;28;20029;-74
2023/07/17 19:19:27;;;;;;;2.65;1.83;;;27.60;65.20;;;;;;5003633;28;20114;-74
2023/07/17 19:21:53;;;;;;;4.60;1.90;;;27.60;65.20;;;;;;4994986;28;20105;-73
2023/07/17 19:24:20;;;;;;;3.13;2.05;;;27.50;65.20;;;;;;4995370;28;20105;-74
2023/07/17 19:26:46;;;;;;;4.68;1.95;;;27.50;65.20;;;;;;4994147;28;20041;-73
2023/07/17 19:29:13;;;;;;;3.22;2.00;;;27.50;65.20;;;;;;4977100;28;20423;-74
2023/07/17 19:31:39;;;;;;;2.15;1.95;;;27.40;65.40;;;;;;4994557;28;20061;-73
2023/07/17 19:34:05;;;;;;;2.42;1.90;;;27.40;65.60;;;;;;4994271;28;20030;-72
2023/07/17 19:36:32;;;;;;;2.45;1.80;;;27.40;65.80;;;;;;4993840;28;20038;-72
2023/07/17 19:38:59;;;;;;;2.53;1.73;;;27.30;65.90;;;;;;4993664;28;20038;-73
2023/07/17 19:41:26;;;;;;;4.10;2.10;;;27.30;66.20;;;;;;4976158;28;20030;-77
2023/07/17 19:43:52;;;;;;;3.38;1.90;;;27.30;66.30;;;;;;4994167;28;20029;-70
2023/07/17 19:46:18;;;;;;;1.98;1.70;;;27.30;66.70;;;;;;4993959;28;20026;-74
2023/07/17 19:48:50;;;;;;;7.68;1.90;;;27.20;67.00;;;;;;4993395;28;20034;-72
2023/07/17 19:51:16;;;;;;;2.40;2.20;;;27.20;67.80;;;;;;4993604;28;20029;-71
2023/07/17 19:53:43;;;;;;;2.85;2.17;;;27.20;67.90;;;;;;4993488;28;20034;-76
2023/07/17 19:56:09;;;;;;;5.93;1.92;;;27.20;68.30;;;;;;4993945;28;20061;-70
2023/07/17 19:58:37;;;;;;;4.70;2.42;;;27.20;68.50;;;;;;4993523;28;20038;-76
2023/07/17 20:01:03;;;;;;;2.42;2.00;;;27.20;69.00;;;;;;4976485;28;20045;-75
2023/07/17 20:03:30;;;;;;;4.18;2.30;;;27.10;69.20;;;;;;4993446;28;20030;-77
2023/07/17 20:05:57;;;;;;;4.00;2.25;;;27.10;69.80;;;;;;4994077;28;20073;-76
2023/07/17 20:08:25;;;;;;;4.47;2.10;;;27.00;70.10;;;;;;4993635;28;20057;-73
2023/07/17 20:10:52;;;;;;;6.13;2.30;;;27.00;70.30;;;;;;4993772;28;20029;-70
2023/07/17 20:13:19;;;;;;;2.28;2.00;;;26.90;70.50;;;;;;5010721;28;20026;-70
2023/07/17 20:15:46;;;;;;;4.93;2.22;;;26.90;70.70;;;;;;5012868;28;20089;-69
2023/07/17 20:18:14;;;;;;;3.85;2.15;;;26.80;70.90;;;;;;5012731;28;20056;-71
2023/07/17 20:20:40;;;;;;;3.92;1.98;;;26.80;71.00;;;;;;4992414;28;20030;-71
2023/07/17 20:23:07;;;;;;;3.15;2.17;;;26.80;71.10;;;;;;4993446;28;20030;-71
2023/07/17 20:25:33;;;;;;;3.67;2.20;;;26.70;71.30;;;;;;4992568;28;20041;-70
2023/07/17 20:28:00;;;;;;;3.70;2.30;;;26.70;71.50;;;;;;4993297;28;20435;-71
2023/07/17 20:30:26;;;;;;;2.90;2.15;;;26.70;71.70;;;;;;4993335;28;20030;-74
2023/07/17 20:32:53;;;;;;;5.40;2.10;;;26.70;71.90;;;;;;4993457;28;20022;-73
2023/07/17 20:35:20;;;;;;;3.70;2.08;;;26.70;72.20;;;;;;4993433;28;20084;-73
2023/07/17 20:37:46;;;;;;;2.33;2.13;;;26.60;72.10;;;;;;4992767;28;20530;-74
2023/07/17 20:40:13;;;;;;;2.72;2.30;;;26.50;72.40;;;;;;4993286;28;20033;-73
2023/07/17 20:42:48;;;;;;;3.17;2.38;;;26.50;72.40;;;;;;4992723;28;20470;-73
2023/07/17 20:45:18;;;;;;;4.35;2.80;;;26.50;72.70;;;;;;4992926;28;20117;-73
2023/07/17 20:47:45;;;;;;;2.83;2.33;;;26.40;73.00;;;;;;4993122;28;20121;-73
2023/07/17 20:50:12;;;;;;;3.58;2.42;;;26.40;73.20;;;;;;4993699;28;20049;-73
2023/07/17 20:52:43;;;;;;;3.47;2.58;;;26.40;73.30;;;;;;4992904;28;20030;-72
2023/07/17 20:55:11;;;;;;;3.03;2.45;;;26.30;73.60;;;;;;4993805;28;20478;-73
2023/07/17 20:57:37;;;;;;;5.53;2.50;;;26.30;73.80;;;;;;4991963;28;20045;-73
2023/07/17 21:00:07;;;;;;;3.58;2.20;;;26.30;74.10;;;;;;4993088;28;20084;-72
2023/07/17 21:02:33;;;;;;;3.27;2.50;;;26.20;74.40;;;;;;4990255;28;20475;-72
2023/07/17 21:04:59;;;;;;;4.68;2.42;;;26.20;74.50;;;;;;4992120;28;20050;-72
2023/07/17 21:07:25;;;;;;;4.60;2.70;;;26.20;74.60;;;;;;4992439;28;20073;-72
2023/07/17 21:09:51;;;;;;;6.68;2.50;;;26.20;74.80;;;;;;4992375;28;20521;-72
2023/07/17 21:12:17;;;;;;;3.10;2.40;;;26.20;75.00;;;;;;4993254;28;20093;-72
2023/07/17 21:14:43;;;;;;;3.25;2.83;;;26.10;75.10;;;;;;4992486;28;20031;-73
2023/07/17 21:17:09;;;;;;;3.80;3.10;;;26.10;75.40;;;;;;4993024;28;20054;-72
2023/07/17 21:19:34;;;;;;;4.63;3.10;;;26.10;75.60;;;;;;4992648;28;20113;-73
2023/07/17 21:22:00;;;;;;;4.65;2.78;;;26.10;75.60;;;;;;4992767;28;20022;-73
2023/07/17 21:24:26;;;;;;;5.13;2.22;;;26.10;75.70;;;;;;4993020;28;20030;-73
2023/07/17 21:26:51;;;;;;;4.78;2.85;;;26.00;75.80;;;;;;4992644;28;20080;-73
2023/07/17 21:29:17;;;;;;;4.30;2.67;;;26.00;76.10;;;;;;4975425;28;20026;-73
2023/07/17 21:31:42;;;;;;;4.53;2.88;;;26.00;76.30;;;;;;4992478;28;20026;-72
2023/07/17 21:34:08;;;;;;;7.05;3.00;;;26.00;76.60;;;;;;4992979;28;20026;-73
2023/07/17 21:36:34;;;;;;;3.33;2.90;;;26.00;76.80;;;;;;4994348;28;20073;-73
2023/07/17 21:38:59;;;;;;;4.20;2.67;;;26.00;77.10;;;;;;4996324;28;20053;-73
2023/07/17 21:41:27;;;;;;;5.90;2.95;;;25.90;77.10;;;;;;4996584;28;20023;-73
2023/07/17 21:43:53;;;;;;;4.10;3.05;;;25.90;77.50;;;;;;4992234;28;20034;-74
2023/07/17 21:46:18;;;;;;;4.75;2.88;;;25.90;77.70;;;;;;4996608;28;20026;-73
2023/07/17 21:48:45;;;;;;;3.42;2.80;;;25.80;77.80;;;;;;4990345;28;20026;-74